Terminal Aerodrome Forecast
Issued by NWS Duluth, MN

Home | Current Version | Previous Version | Text Only | Print | Product List | Glossary On
Versions: 1 2 3 4 5 6 7 8 9 10 11 12 13 14 15 16 17 18 19 20 21 22 23 24 25 26 27 28 29 30 31 32 33 34 35 36
325
FTUS43 KDLH 131359 AAB
TAFINL
TAF AMD
KINL 131359Z 1314/1412 05006KT 2SM -SN OVC015
      TEMPO 1314/1316 3/4SM -SN
     FM131700 05007KT P6SM VCSH OVC025
     FM131900 02006KT P6SM OVC020
     FM132000 35006KT P6SM BKN015
     FM140500 30005KT P6SM OVC025=

USA.gov is the U.S. government's official web portal to all federal, state and local government web resources and services.